sensor_id;sensor_type;location;lat;lon;timestamp;temperature;humidity
64858;SHT30;51335;51.148;6.950;2022-12-07T00:00:25;4.89;99.94
64858;SHT30;51335;51.148;6.950;2022-12-07T00:01:04;4.90;99.86
64858;SHT30;51335;51.148;6.950;2022-12-07T00:01:39;4.86;99.86
64858;SHT30;51335;51.148;6.950;2022-12-07T00:02:10;4.84;99.94
64858;SHT30;51335;51.148;6.950;2022-12-07T00:02:40;4.87;99.98
64858;SHT30;51335;51.148;6.950;2022-12-07T00:03:10;4.86;99.88
64858;SHT30;51335;51.148;6.950;2022-12-07T00:03:41;4.86;99.96
64858;SHT30;51335;51.148;6.950;2022-12-07T00:04:14;4.92;99.96
64858;SHT30;51335;51.148;6.950;2022-12-07T00:04:45;4.90;99.76
64858;SHT30;51335;51.148;6.950;2022-12-07T00:05:15;4.86;99.64
64858;SHT30;51335;51.148;6.950;2022-12-07T00:05:46;4.92;99.70
64858;SHT30;51335;51.148;6.950;2022-12-07T00:06:16;4.86;99.79
64858;SHT30;51335;51.148;6.950;2022-12-07T00:06:51;4.86;99.83
64858;SHT30;51335;51.148;6.950;2022-12-07T00:07:21;4.83;99.83
64858;SHT30;51335;51.148;6.950;2022-12-07T00:07:52;4.89;99.85
64858;SHT30;51335;51.148;6.950;2022-12-07T00:08:22;4.90;99.65
64858;SHT30;51335;51.148;6.950;2022-12-07T00:08:52;4.89;99.74
64858;SHT30;51335;51.148;6.950;2022-12-07T00:09:22;4.86;99.78
64858;SHT30;51335;51.148;6.950;2022-12-07T00:09:53;4.86;99.83
64858;SHT30;51335;51.148;6.950;2022-12-07T00:10:23;4.90;99.81
64858;SHT30;51335;51.148;6.950;2022-12-07T00:10:53;4.86;99.82
64858;SHT30;51335;51.148;6.950;2022-12-07T00:11:24;4.84;99.85
64858;SHT30;51335;51.148;6.950;2022-12-07T00:11:54;4.87;99.90
64858;SHT30;51335;51.148;6.950;2022-12-07T00:12:24;4.90;99.89
64858;SHT30;51335;51.148;6.950;2022-12-07T00:12:55;4.90;99.84
64858;SHT30;51335;51.148;6.950;2022-12-07T00:13:25;4.86;99.80
64858;SHT30;51335;51.148;6.950;2022-12-07T00:13:58;4.87;99.85
64858;SHT30;51335;51.148;6.950;2022-12-07T00:14:29;4.84;99.86
64858;SHT30;51335;51.148;6.950;2022-12-07T00:14:59;4.87;99.86
64858;SHT30;51335;51.148;6.950;2022-12-07T00:15:30;4.86;99.93
64858;SHT30;51335;51.148;6.950;2022-12-07T00:16:08;4.84;99.99
64858;SHT30;51335;51.148;6.950;2022-12-07T00:16:40;4.79;99.99
64858;SHT30;51335;51.148;6.950;2022-12-07T00:17:10;4.80;99.99
64858;SHT30;51335;51.148;6.950;2022-12-07T00:17:40;4.79;99.99
64858;SHT30;51335;51.148;6.950;2022-12-07T00:18:11;4.80;99.99
64858;SHT30;51335;51.148;6.950;2022-12-07T00:18:41;4.80;99.99
64858;SHT30;51335;51.148;6.950;2022-12-07T00:19:13;4.79;99.99
64858;SHT30;51335;51.148;6.950;2022-12-07T00:19:43;4.79;99.99
64858;SHT30;51335;51.148;6.950;2022-12-07T00:20:13;4.80;99.99
64858;SHT30;51335;51.148;6.950;2022-12-07T00:20:44;4.77;99.99
64858;SHT30;51335;51.148;6.950;2022-12-07T00:21:23;4.79;99.99
64858;SHT30;51335;51.148;6.950;2022-12-07T00:21:53;4.80;99.99
64858;SHT30;51335;51.148;6.950;2022-12-07T00:22:23;4.76;99.99
64858;SHT30;51335;51.148;6.950;2022-12-07T00:22:54;4.75;99.99
64858;SHT30;51335;51.148;6.950;2022-12-07T00:23:24;4.76;99.99
64858;SHT30;51335;51.148;6.950;2022-12-07T00:23:55;4.75;99.99
64858;SHT30;51335;51.148;6.950;2022-12-07T00:24:25;4.77;99.99
64858;SHT30;51335;51.148;6.950;2022-12-07T00:24:56;4.75;99.99
64858;SHT30;51335;51.148;6.950;2022-12-07T00:25:26;4.79;99.99
64858;SHT30;51335;51.148;6.950;2022-12-07T00:26:06;4.79;99.99
64858;SHT30;51335;51.148;6.950;2022-12-07T00:26:38;4.84;99.99
64858;SHT30;51335;51.148;6.950;2022-12-07T00:27:09;4.87;99.99
64858;SHT30;51335;51.148;6.950;2022-12-07T00:27:39;4.90;99.99
64858;SHT30;51335;51.148;6.950;2022-12-07T00:28:09;4.93;99.99
64858;SHT30;51335;51.148;6.950;2022-12-07T00:28:40;4.89;99.99
64858;SHT30;51335;51.148;6.950;2022-12-07T00:29:19;4.92;99.99
64858;SHT30;51335;51.148;6.950;2022-12-07T00:29:50;4.90;99.99
64858;SHT30;51335;51.148;6.950;2022-12-07T00:30:20;4.92;99.99
64858;SHT30;51335;51.148;6.950;2022-12-07T00:30:50;4.90;99.99
64858;SHT30;51335;51.148;6.950;2022-12-07T00:31:22;4.90;99.99
64858;SHT30;51335;51.148;6.950;2022-12-07T00:31:53;4.89;99.99
64858;SHT30;51335;51.148;6.950;2022-12-07T00:32:23;4.90;99.99
64858;SHT30;51335;51.148;6.950;2022-12-07T00:32:53;4.89;99.99
64858;SHT30;51335;51.148;6.950;2022-12-07T00:33:24;4.89;99.99
64858;SHT30;51335;51.148;6.950;2022-12-07T00:33:54;4.89;99.99
64858;SHT30;51335;51.148;6.950;2022-12-07T00:34:25;4.86;99.99
64858;SHT30;51335;51.148;6.950;2022-12-07T00:34:55;4.86;99.99
64858;SHT30;51335;51.148;6.950;2022-12-07T00:35:25;4.90;99.99
64858;SHT30;51335;51.148;6.950;2022-12-07T00:35:57;4.92;99.99
64858;SHT30;51335;51.148;6.950;2022-12-07T00:36:27;4.90;99.99
64858;SHT30;51335;51.148;6.950;2022-12-07T00:36:57;4.92;99.99
64858;SHT30;51335;51.148;6.950;2022-12-07T00:37:28;4.92;99.99
64858;SHT30;51335;51.148;6.950;2022-12-07T00:37:58;4.90;99.99
64858;SHT30;51335;51.148;6.950;2022-12-07T00:38:30;4.92;99.99
64858;SHT30;51335;51.148;6.950;2022-12-07T00:39:02;4.92;99.99
64858;SHT30;51335;51.148;6.950;2022-12-07T00:39:32;4.93;99.99
64858;SHT30;51335;51.148;6.950;2022-12-07T00:40:03;4.93;99.99
64858;SHT30;51335;51.148;6.950;2022-12-07T00:40:34;4.94;99.99
64858;SHT30;51335;51.148;6.950;2022-12-07T00:41:07;4.92;99.99
64858;SHT30;51335;51.148;6.950;2022-12-07T00:41:39;4.90;99.99
64858;SHT30;51335;51.148;6.950;2022-12-07T00:42:09;4.92;99.99
64858;SHT30;51335;51.148;6.950;2022-12-07T00:42:39;4.93;99.99
64858;SHT30;51335;51.148;6.950;2022-12-07T00:43:10;4.93;99.99
64858;SHT30;51335;51.148;6.950;2022-12-07T00:43:41;4.89;99.99
64858;SHT30;51335;51.148;6.950;2022-12-07T00:44:11;4.86;99.99
64858;SHT30;51335;51.148;6.950;2022-12-07T00:44:41;4.86;99.99
64858;SHT30;51335;51.148;6.950;2022-12-07T00:45:12;4.84;99.99
64858;SHT30;51335;51.148;6.950;2022-12-07T00:45:42;4.87;99.99
64858;SHT30;51335;51.148;6.950;2022-12-07T00:46:13;4.87;99.99
64858;SHT30;51335;51.148;6.950;2022-12-07T00:46:43;4.87;99.99
64858;SHT30;51335;51.148;6.950;2022-12-07T00:47:14;4.87;99.99
64858;SHT30;51335;51.148;6.950;2022-12-07T00:47:44;4.86;99.99
64858;SHT30;51335;51.148;6.950;2022-12-07T00:48:14;4.84;99.99
64858;SHT30;51335;51.148;6.950;2022-12-07T00:48:45;4.84;99.99
64858;SHT30;51335;51.148;6.950;2022-12-07T00:49:16;4.84;99.99
64858;SHT30;51335;51.148;6.950;2022-12-07T00:49:46;4.83;99.99
64858;SHT30;51335;51.148;6.950;2022-12-07T00:50:16;4.84;99.99
64858;SHT30;51335;51.148;6.950;2022-12-07T00:50:46;4.84;99.99
64858;SHT30;51335;51.148;6.950;2022-12-07T00:51:19;4.84;99.99
64858;SHT30;51335;51.148;6.950;2022-12-07T00:51:49;4.84;99.99
64858;SHT30;51335;51.148;6.950;2022-12-07T00:52:20;4.84;99.99
64858;SHT30;51335;51.148;6.950;2022-12-07T00:52:50;4.86;99.99
64858;SHT30;51335;51.148;6.950;2022-12-07T00:53:20;4.84;99.99
64858;SHT30;51335;51.148;6.950;2022-12-07T00:53:51;4.86;99.99
64858;SHT30;51335;51.148;6.950;2022-12-07T00:54:22;4.84;99.99
64858;SHT30;51335;51.148;6.950;2022-12-07T00:54:52;4.87;99.99
64858;SHT30;51335;51.148;6.950;2022-12-07T00:55:22;4.84;99.99
64858;SHT30;51335;51.148;6.950;2022-12-07T00:55:53;4.92;99.99
64858;SHT30;51335;51.148;6.950;2022-12-07T00:56:25;4.94;99.99
64858;SHT30;51335;51.148;6.950;2022-12-07T00:56:56;4.92;99.96
64858;SHT30;51335;51.148;6.950;2022-12-07T00:57:26;4.89;99.99
64858;SHT30;51335;51.148;6.950;2022-12-07T00:57:56;4.86;99.99
64858;SHT30;51335;51.148;6.950;2022-12-07T00:58:27;4.86;99.99
64858;SHT30;51335;51.148;6.950;2022-12-07T00:58:59;4.80;99.99
64858;SHT30;51335;51.148;6.950;2022-12-07T00:59:30;4.82;99.99
64858;SHT30;51335;51.148;6.950;2022-12-07T01:00:00;4.84;99.99
64858;SHT30;51335;51.148;6.950;2022-12-07T01:00:30;4.90;99.99
64858;SHT30;51335;51.148;6.950;2022-12-07T01:01:01;4.90;99.99
64858;SHT30;51335;51.148;6.950;2022-12-07T01:01:34;4.89;99.99
64858;SHT30;51335;51.148;6.950;2022-12-07T01:02:05;4.86;99.99
64858;SHT30;51335;51.148;6.950;2022-12-07T01:02:35;4.89;99.99
64858;SHT30;51335;51.148;6.950;2022-12-07T01:03:06;4.87;99.99
64858;SHT30;51335;51.148;6.950;2022-12-07T01:03:37;4.83;99.98
64858;SHT30;51335;51.148;6.950;2022-12-07T01:04:08;4.84;99.99
64858;SHT30;51335;51.148;6.950;2022-12-07T01:04:38;4.83;99.99
64858;SHT30;51335;51.148;6.950;2022-12-07T01:05:08;4.82;99.99
64858;SHT30;51335;51.148;6.950;2022-12-07T01:05:39;4.79;99.99
64858;SHT30;51335;51.148;6.950;2022-12-07T01:06:14;4.82;99.99
64858;SHT30;51335;51.148;6.950;2022-12-07T01:06:44;4.79;99.99
64858;SHT30;51335;51.148;6.950;2022-12-07T01:07:14;4.79;99.99
64858;SHT30;51335;51.148;6.950;2022-12-07T01:07:45;4.76;99.99
64858;SHT30;51335;51.148;6.950;2022-12-07T01:08:15;4.73;99.99
64858;SHT30;51335;51.148;6.950;2022-12-07T01:08:45;4.72;99.99
64858;SHT30;51335;51.148;6.950;2022-12-07T01:09:16;4.72;99.99
64858;SHT30;51335;51.148;6.950;2022-12-07T01:09:46;4.75;99.99
64858;SHT30;51335;51.148;6.950;2022-12-07T01:10:16;4.73;99.99
64858;SHT30;51335;51.148;6.950;2022-12-07T01:10:47;4.76;99.99
64858;SHT30;51335;51.148;6.950;2022-12-07T01:11:21;4.76;99.99
64858;SHT30;51335;51.148;6.950;2022-12-07T01:11:51;4.75;99.99
64858;SHT30;51335;51.148;6.950;2022-12-07T01:12:21;4.75;99.99
64858;SHT30;51335;51.148;6.950;2022-12-07T01:12:52;4.76;99.99
64858;SHT30;51335;51.148;6.950;2022-12-07T01:13:22;4.75;99.99
64858;SHT30;51335;51.148;6.950;2022-12-07T01:13:54;4.77;99.99
64858;SHT30;51335;51.148;6.950;2022-12-07T01:14:25;4.76;99.99
64858;SHT30;51335;51.148;6.950;2022-12-07T01:14:55;4.76;99.99
64858;SHT30;51335;51.148;6.950;2022-12-07T01:15:25;4.73;99.99
64858;SHT30;51335;51.148;6.950;2022-12-07T01:15:58;4.75;99.99
64858;SHT30;51335;51.148;6.950;2022-12-07T01:16:30;4.76;99.99
64858;SHT30;51335;51.148;6.950;2022-12-07T01:17:01;4.73;99.99
64858;SHT30;51335;51.148;6.950;2022-12-07T01:17:31;4.75;99.99
64858;SHT30;51335;51.148;6.950;2022-12-07T01:18:01;4.76;99.99
64858;SHT30;51335;51.148;6.950;2022-12-07T01:18:34;4.79;99.99
64858;SHT30;51335;51.148;6.950;2022-12-07T01:19:05;4.83;99.99
64858;SHT30;51335;51.148;6.950;2022-12-07T01:19:35;4.82;99.99
64858;SHT30;51335;51.148;6.950;2022-12-07T01:20:06;4.77;99.99
64858;SHT30;51335;51.148;6.950;2022-12-07T01:20:37;4.73;99.99
64858;SHT30;51335;51.148;6.950;2022-12-07T01:21:11;4.75;99.99
64858;SHT30;51335;51.148;6.950;2022-12-07T01:21:41;4.75;99.99
64858;SHT30;51335;51.148;6.950;2022-12-07T01:22:12;4.75;99.99
64858;SHT30;51335;51.148;6.950;2022-12-07T01:22:43;4.79;99.99
64858;SHT30;51335;51.148;6.950;2022-12-07T01:23:13;4.77;99.99
64858;SHT30;51335;51.148;6.950;2022-12-07T01:23:44;4.80;99.99
64858;SHT30;51335;51.148;6.950;2022-12-07T01:24:14;4.77;99.99
64858;SHT30;51335;51.148;6.950;2022-12-07T01:24:45;4.77;99.99
64858;SHT30;51335;51.148;6.950;2022-12-07T01:25:15;4.75;99.99
64858;SHT30;51335;51.148;6.950;2022-12-07T01:25:54;4.75;99.99
64858;SHT30;51335;51.148;6.950;2022-12-07T01:26:25;4.75;99.99
64858;SHT30;51335;51.148;6.950;2022-12-07T01:26:55;4.76;99.99
64858;SHT30;51335;51.148;6.950;2022-12-07T01:27:25;4.75;99.99
64858;SHT30;51335;51.148;6.950;2022-12-07T01:27:56;4.77;99.99
64858;SHT30;51335;51.148;6.950;2022-12-07T01:28:26;4.77;99.99
64858;SHT30;51335;51.148;6.950;2022-12-07T01:28:57;4.79;99.99
64858;SHT30;51335;51.148;6.950;2022-12-07T01:29:27;4.77;99.99
64858;SHT30;51335;51.148;6.950;2022-12-07T01:29:57;4.79;99.99
64858;SHT30;51335;51.148;6.950;2022-12-07T01:30:28;4.79;99.99
64858;SHT30;51335;51.148;6.950;2022-12-07T01:31:07;4.76;99.99
64858;SHT30;51335;51.148;6.950;2022-12-07T01:31:37;4.79;99.99
64858;SHT30;51335;51.148;6.950;2022-12-07T01:32:08;4.77;99.99
64858;SHT30;51335;51.148;6.950;2022-12-07T01:32:38;4.75;99.99
64858;SHT30;51335;51.148;6.950;2022-12-07T01:33:08;4.75;99.99
64858;SHT30;51335;51.148;6.950;2022-12-07T01:33:39;4.77;99.99
64858;SHT30;51335;51.148;6.950;2022-12-07T01:34:10;4.77;99.99
64858;SHT30;51335;51.148;6.950;2022-12-07T01:34:40;4.75;99.99
64858;SHT30;51335;51.148;6.950;2022-12-07T01:35:10;4.75;99.99
64858;SHT30;51335;51.148;6.950;2022-12-07T01:35:40;4.75;99.99
64858;SHT30;51335;51.148;6.950;2022-12-07T01:36:21;4.76;99.99
64858;SHT30;51335;51.148;6.950;2022-12-07T01:36:51;4.75;99.99
64858;SHT30;51335;51.148;6.950;2022-12-07T01:37:22;4.73;99.99
64858;SHT30;51335;51.148;6.950;2022-12-07T01:37:52;4.76;99.99
64858;SHT30;51335;51.148;6.950;2022-12-07T01:38:22;4.76;99.99
64858;SHT30;51335;51.148;6.950;2022-12-07T01:39:00;4.76;99.99
64858;SHT30;51335;51.148;6.950;2022-12-07T01:39:31;4.76;99.99
64858;SHT30;51335;51.148;6.950;2022-12-07T01:40:02;4.79;99.99
64858;SHT30;51335;51.148;6.950;2022-12-07T01:40:33;4.77;99.99
64858;SHT30;51335;51.148;6.950;2022-12-07T01:41:03;4.79;99.99
64858;SHT30;51335;51.148;6.950;2022-12-07T01:41:37;4.77;99.99
64858;SHT30;51335;51.148;6.950;2022-12-07T01:42:11;4.72;99.99
64858;SHT30;51335;51.148;6.950;2022-12-07T01:42:42;4.71;99.99
64858;SHT30;51335;51.148;6.950;2022-12-07T01:43:19;4.71;99.99
64858;SHT30;51335;51.148;6.950;2022-12-07T01:44:28;4.71;99.99
64858;SHT30;51335;51.148;6.950;2022-12-07T01:45:47;4.68;99.99
64858;SHT30;51335;51.148;6.950;2022-12-07T01:46:17;4.71;99.99
64858;SHT30;51335;51.148;6.950;2022-12-07T01:47:18;4.73;99.99
64858;SHT30;51335;51.148;6.950;2022-12-07T01:47:52;4.75;99.99
64858;SHT30;51335;51.148;6.950;2022-12-07T01:48:42;4.73;99.99
64858;SHT30;51335;51.148;6.950;2022-12-07T01:49:17;4.77;99.99
64858;SHT30;51335;51.148;6.950;2022-12-07T01:49:49;4.76;99.99
64858;SHT30;51335;51.148;6.950;2022-12-07T01:50:20;4.76;99.99
64858;SHT30;51335;51.148;6.950;2022-12-07T01:50:52;4.72;99.99
64858;SHT30;51335;51.148;6.950;2022-12-07T01:51:23;4.77;99.99
64858;SHT30;51335;51.148;6.950;2022-12-07T01:52:00;4.83;99.99
64858;SHT30;51335;51.148;6.950;2022-12-07T01:52:33;4.86;99.95
64858;SHT30;51335;51.148;6.950;2022-12-07T01:53:05;4.84;99.99
64858;SHT30;51335;51.148;6.950;2022-12-07T01:53:41;4.82;99.99
64858;SHT30;51335;51.148;6.950;2022-12-07T01:54:14;4.82;99.99
64858;SHT30;51335;51.148;6.950;2022-12-07T01:54:46;4.79;99.99
64858;SHT30;51335;51.148;6.950;2022-12-07T01:55:17;4.82;99.99
64858;SHT30;51335;51.148;6.950;2022-12-07T01:55:51;4.76;99.99
64858;SHT30;51335;51.148;6.950;2022-12-07T01:56:25;4.75;99.99
64858;SHT30;51335;51.148;6.950;2022-12-07T01:56:56;4.75;99.99
64858;SHT30;51335;51.148;6.950;2022-12-07T01:57:29;4.71;99.99
64858;SHT30;51335;51.148;6.950;2022-12-07T01:58:00;4.73;99.99
64858;SHT30;51335;51.148;6.950;2022-12-07T01:58:30;4.72;99.99
64858;SHT30;51335;51.148;6.950;2022-12-07T01:59:01;4.72;99.99
64858;SHT30;51335;51.148;6.950;2022-12-07T01:59:32;4.71;99.99
64858;SHT30;51335;51.148;6.950;2022-12-07T02:00:04;4.69;99.99
64858;SHT30;51335;51.148;6.950;2022-12-07T02:00:35;4.68;99.99
64858;SHT30;51335;51.148;6.950;2022-12-07T02:01:05;4.66;99.99
64858;SHT30;51335;51.148;6.950;2022-12-07T02:01:35;4.72;99.99
64858;SHT30;51335;51.148;6.950;2022-12-07T02:02:10;4.71;99.99
64858;SHT30;51335;51.148;6.950;2022-12-07T02:03:37;4.72;99.99
64858;SHT30;51335;51.148;6.950;2022-12-07T02:04:10;4.69;99.99
64858;SHT30;51335;51.148;6.950;2022-12-07T02:04:41;4.71;99.99
64858;SHT30;51335;51.148;6.950;2022-12-07T02:05:11;4.71;99.99
64858;SHT30;51335;51.148;6.950;2022-12-07T02:05:43;4.69;99.99
64858;SHT30;51335;51.148;6.950;2022-12-07T02:06:22;4.69;99.99
64858;SHT30;51335;51.148;6.950;2022-12-07T02:06:54;4.68;99.99
64858;SHT30;51335;51.148;6.950;2022-12-07T02:07:25;4.72;99.99
64858;SHT30;51335;51.148;6.950;2022-12-07T02:07:57;4.69;99.99
64858;SHT30;51335;51.148;6.950;2022-12-07T02:08:28;4.66;99.99
64858;SHT30;51335;51.148;6.950;2022-12-07T02:08:58;4.68;99.99
64858;SHT30;51335;51.148;6.950;2022-12-07T02:09:28;4.69;99.99
64858;SHT30;51335;51.148;6.950;2022-12-07T02:10:18;4.65;99.99
64858;SHT30;51335;51.148;6.950;2022-12-07T02:10:49;4.68;99.99
64858;SHT30;51335;51.148;6.950;2022-12-07T02:11:20;4.66;99.99
64858;SHT30;51335;51.148;6.950;2022-12-07T02:11:51;4.71;99.99
64858;SHT30;51335;51.148;6.950;2022-12-07T02:12:23;4.71;99.99
64858;SHT30;51335;51.148;6.950;2022-12-07T02:13:09;4.69;99.99
64858;SHT30;51335;51.148;6.950;2022-12-07T02:13:42;4.71;99.99
64858;SHT30;51335;51.148;6.950;2022-12-07T02:14:13;4.71;99.99
64858;SHT30;51335;51.148;6.950;2022-12-07T02:14:44;4.72;99.99
64858;SHT30;51335;51.148;6.950;2022-12-07T02:15:14;4.71;99.99
64858;SHT30;51335;51.148;6.950;2022-12-07T02:17:32;4.69;99.99
64858;SHT30;51335;51.148;6.950;2022-12-07T02:18:09;4.72;99.99
64858;SHT30;51335;51.148;6.950;2022-12-07T02:19:09;4.73;99.99
64858;SHT30;51335;51.148;6.950;2022-12-07T02:22:04;4.72;99.99
64858;SHT30;51335;51.148;6.950;2022-12-07T02:23:39;4.68;99.99
64858;SHT30;51335;51.148;6.950;2022-12-07T02:26:38;4.68;99.99
64858;SHT30;51335;51.148;6.950;2022-12-07T02:27:46;4.71;99.99
64858;SHT30;51335;51.148;6.950;2022-12-07T02:28:31;4.72;99.99
64858;SHT30;51335;51.148;6.950;2022-12-07T02:29:25;4.77;99.99
64858;SHT30;51335;51.148;6.950;2022-12-07T02:30:31;4.73;99.99
64858;SHT30;51335;51.148;6.950;2022-12-07T02:31:09;4.68;99.99
64858;SHT30;51335;51.148;6.950;2022-12-07T02:31:46;4.71;99.99
64858;SHT30;51335;51.148;6.950;2022-12-07T02:32:30;4.72;99.99
64858;SHT30;51335;51.148;6.950;2022-12-07T02:33:08;4.72;99.99
64858;SHT30;51335;51.148;6.950;2022-12-07T02:33:46;4.72;99.99
64858;SHT30;51335;51.148;6.950;2022-12-07T02:35:56;4.72;99.99
64858;SHT30;51335;51.148;6.950;2022-12-07T02:36:31;4.69;99.99
64858;SHT30;51335;51.148;6.950;2022-12-07T02:37:09;4.69;99.99
64858;SHT30;51335;51.148;6.950;2022-12-07T02:39:11;4.69;99.99
64858;SHT30;51335;51.148;6.950;2022-12-07T02:39:57;4.69;99.99
64858;SHT30;51335;51.148;6.950;2022-12-07T02:41:04;4.73;99.99
64858;SHT30;51335;51.148;6.950;2022-12-07T02:41:47;4.76;99.99
64858;SHT30;51335;51.148;6.950;2022-12-07T02:42:23;4.82;99.99
64858;SHT30;51335;51.148;6.950;2022-12-07T02:43:19;4.75;99.99
64858;SHT30;51335;51.148;6.950;2022-12-07T02:44:06;4.82;99.99
64858;SHT30;51335;51.148;6.950;2022-12-07T02:44:37;4.82;99.99
64858;SHT30;51335;51.148;6.950;2022-12-07T02:45:08;4.77;99.99
64858;SHT30;51335;51.148;6.950;2022-12-07T02:45:41;4.75;99.99
64858;SHT30;51335;51.148;6.950;2022-12-07T02:46:21;4.83;99.99
64858;SHT30;51335;51.148;6.950;2022-12-07T02:46:55;4.76;99.99
64858;SHT30;51335;51.148;6.950;2022-12-07T02:47:28;4.83;99.99
64858;SHT30;51335;51.148;6.950;2022-12-07T02:48:00;4.77;99.99
64858;SHT30;51335;51.148;6.950;2022-12-07T02:48:31;4.80;99.99
64858;SHT30;51335;51.148;6.950;2022-12-07T02:49:03;4.75;99.99
64858;SHT30;51335;51.148;6.950;2022-12-07T02:49:36;4.73;99.99
64858;SHT30;51335;51.148;6.950;2022-12-07T02:50:07;4.73;99.99
64858;SHT30;51335;51.148;6.950;2022-12-07T02:50:38;4.73;99.99
64858;SHT30;51335;51.148;6.950;2022-12-07T02:51:08;4.76;99.99
64858;SHT30;51335;51.148;6.950;2022-12-07T02:51:41;4.77;99.99
64858;SHT30;51335;51.148;6.950;2022-12-07T02:52:12;4.79;99.99
64858;SHT30;51335;51.148;6.950;2022-12-07T02:52:42;4.77;99.99
64858;SHT30;51335;51.148;6.950;2022-12-07T02:53:39;4.77;99.99
64858;SHT30;51335;51.148;6.950;2022-12-07T02:54:15;4.73;99.99
64858;SHT30;51335;51.148;6.950;2022-12-07T02:54:45;4.72;99.99
64858;SHT30;51335;51.148;6.950;2022-12-07T02:55:18;4.75;99.99
64858;SHT30;51335;51.148;6.950;2022-12-07T02:55:49;4.73;99.99
64858;SHT30;51335;51.148;6.950;2022-12-07T02:57:30;4.84;99.99
64858;SHT30;51335;51.148;6.950;2022-12-07T02:58:16;4.82;99.90
64858;SHT30;51335;51.148;6.950;2022-12-07T03:00:27;4.75;99.99
64858;SHT30;51335;51.148;6.950;2022-12-07T03:01:06;4.72;99.99
64858;SHT30;51335;51.148;6.950;2022-12-07T03:03:10;4.71;99.99
64858;SHT30;51335;51.148;6.950;2022-12-07T03:03:47;4.66;99.99
64858;SHT30;51335;51.148;6.950;2022-12-07T03:06:16;4.71;99.99
64858;SHT30;51335;51.148;6.950;2022-12-07T03:06:28;4.77;99.99
64858;SHT30;51335;51.148;6.950;2022-12-07T03:09:39;4.76;99.99
64858;SHT30;51335;51.148;6.950;2022-12-07T03:11:00;4.77;99.99
64858;SHT30;51335;51.148;6.950;2022-12-07T03:11:44;4.79;99.99
64858;SHT30;51335;51.148;6.950;2022-12-07T03:12:22;4.73;99.99
64858;SHT30;51335;51.148;6.950;2022-12-07T03:14:30;4.77;99.99
64858;SHT30;51335;51.148;6.950;2022-12-07T03:15:16;4.76;99.99
64858;SHT30;51335;51.148;6.950;2022-12-07T03:16:23;4.75;99.99
64858;SHT30;51335;51.148;6.950;2022-12-07T03:17:07;4.79;99.99
64858;SHT30;51335;51.148;6.950;2022-12-07T03:17:42;4.80;99.96
64858;SHT30;51335;51.148;6.950;2022-12-07T03:18:17;4.76;99.99
64858;SHT30;51335;51.148;6.950;2022-12-07T03:19:08;4.83;99.99
64858;SHT30;51335;51.148;6.950;2022-12-07T03:19:40;4.79;99.98
64858;SHT30;51335;51.148;6.950;2022-12-07T03:20:13;4.82;99.98
64858;SHT30;51335;51.148;6.950;2022-12-07T03:20:46;4.79;99.95
64858;SHT30;51335;51.148;6.950;2022-12-07T03:21:22;4.77;99.99
64858;SHT30;51335;51.148;6.950;2022-12-07T03:21:57;4.72;99.99
64858;SHT30;51335;51.148;6.950;2022-12-07T03:22:29;4.69;99.99
64858;SHT30;51335;51.148;6.950;2022-12-07T03:23:03;4.72;99.99
64858;SHT30;51335;51.148;6.950;2022-12-07T03:23:35;4.73;99.99
64858;SHT30;51335;51.148;6.950;2022-12-07T03:24:13;4.73;99.99
64858;SHT30;51335;51.148;6.950;2022-12-07T03:25:16;4.73;99.99
64858;SHT30;51335;51.148;6.950;2022-12-07T03:25:51;4.72;99.99
64858;SHT30;51335;51.148;6.950;2022-12-07T03:26:30;4.76;99.99
64858;SHT30;51335;51.148;6.950;2022-12-07T03:27:10;4.80;99.99
64858;SHT30;51335;51.148;6.950;2022-12-07T03:28:19;4.80;99.87
64858;SHT30;51335;51.148;6.950;2022-12-07T03:28:54;4.76;99.94
64858;SHT30;51335;51.148;6.950;2022-12-07T03:29:30;4.79;99.99
64858;SHT30;51335;51.148;6.950;2022-12-07T03:30:10;4.73;99.99
64858;SHT30;51335;51.148;6.950;2022-12-07T03:30:49;4.77;99.99
64858;SHT30;51335;51.148;6.950;2022-12-07T03:31:31;4.79;99.99
64858;SHT30;51335;51.148;6.950;2022-12-07T03:32:14;4.76;99.99
64858;SHT30;51335;51.148;6.950;2022-12-07T03:33:24;4.76;99.97
64858;SHT30;51335;51.148;6.950;2022-12-07T03:34:10;4.80;99.99
64858;SHT30;51335;51.148;6.950;2022-12-07T03:34:49;4.80;99.98
64858;SHT30;51335;51.148;6.950;2022-12-07T03:35:32;4.80;99.90
64858;SHT30;51335;51.148;6.950;2022-12-07T03:36:52;4.77;99.99
64858;SHT30;51335;51.148;6.950;2022-12-07T03:38:14;4.76;99.99
64858;SHT30;51335;51.148;6.950;2022-12-07T03:38:50;4.72;99.99
64858;SHT30;51335;51.148;6.950;2022-12-07T03:39:45;4.71;99.99
64858;SHT30;51335;51.148;6.950;2022-12-07T03:40:28;4.69;99.99
64858;SHT30;51335;51.148;6.950;2022-12-07T03:41:00;4.68;99.99
64858;SHT30;51335;51.148;6.950;2022-12-07T03:41:33;4.69;99.99
64858;SHT30;51335;51.148;6.950;2022-12-07T03:42:05;4.69;99.99
64858;SHT30;51335;51.148;6.950;2022-12-07T03:42:37;4.68;99.99
64858;SHT30;51335;51.148;6.950;2022-12-07T03:43:08;4.69;99.99
64858;SHT30;51335;51.148;6.950;2022-12-07T03:43:39;4.66;99.99
64858;SHT30;51335;51.148;6.950;2022-12-07T03:44:10;4.65;99.99
64858;SHT30;51335;51.148;6.950;2022-12-07T03:44:41;4.62;99.99
64858;SHT30;51335;51.148;6.950;2022-12-07T03:45:12;4.63;99.99
64858;SHT30;51335;51.148;6.950;2022-12-07T03:45:48;4.72;99.99
64858;SHT30;51335;51.148;6.950;2022-12-07T03:46:45;4.71;99.99
64858;SHT30;51335;51.148;6.950;2022-12-07T03:47:27;4.71;99.99
64858;SHT30;51335;51.148;6.950;2022-12-07T03:48:14;4.71;99.99
64858;SHT30;51335;51.148;6.950;2022-12-07T03:48:59;4.75;99.99
64858;SHT30;51335;51.148;6.950;2022-12-07T03:49:46;4.73;99.99
64858;SHT30;51335;51.148;6.950;2022-12-07T03:50:37;4.75;99.99
64858;SHT30;51335;51.148;6.950;2022-12-07T03:51:17;4.73;99.99
64858;SHT30;51335;51.148;6.950;2022-12-07T03:52:02;4.73;99.99
64858;SHT30;51335;51.148;6.950;2022-12-07T03:52:51;4.73;99.99
64858;SHT30;51335;51.148;6.950;2022-12-07T03:53:46;4.73;99.99
64858;SHT30;51335;51.148;6.950;2022-12-07T03:54:24;4.69;99.99
64858;SHT30;51335;51.148;6.950;2022-12-07T03:55:18;4.69;99.99
64858;SHT30;51335;51.148;6.950;2022-12-07T03:55:49;4.71;99.99
64858;SHT30;51335;51.148;6.950;2022-12-07T03:56:20;4.69;99.99
64858;SHT30;51335;51.148;6.950;2022-12-07T03:56:52;4.68;99.99
64858;SHT30;51335;51.148;6.950;2022-12-07T03:57:25;4.68;99.99
64858;SHT30;51335;51.148;6.950;2022-12-07T03:58:00;4.71;99.99
64858;SHT30;51335;51.148;6.950;2022-12-07T03:58:33;4.66;99.99
64858;SHT30;51335;51.148;6.950;2022-12-07T03:59:04;4.66;99.99
64858;SHT30;51335;51.148;6.950;2022-12-07T03:59:35;4.63;99.99
64858;SHT30;51335;51.148;6.950;2022-12-07T04:00:06;4.65;99.99
64858;SHT30;51335;51.148;6.950;2022-12-07T04:00:37;4.68;99.99
64858;SHT30;51335;51.148;6.950;2022-12-07T04:01:08;4.68;99.99
64858;SHT30;51335;51.148;6.950;2022-12-07T04:01:38;4.66;99.99
64858;SHT30;51335;51.148;6.950;2022-12-07T04:02:12;4.69;99.99
64858;SHT30;51335;51.148;6.950;2022-12-07T04:02:43;4.69;99.99
64858;SHT30;51335;51.148;6.950;2022-12-07T04:03:13;4.71;99.99
64858;SHT30;51335;51.148;6.950;2022-12-07T04:03:43;4.72;99.99
64858;SHT30;51335;51.148;6.950;2022-12-07T04:04:14;4.73;99.98